Time;durP1;ratioP1;P1;durP2;ratioP2;P2;SDS_P1;SDS_P2;PMS_P1;PMS_P2;Temp;Humidity;BMP_temperature;BMP_pressure;BME280_temperature;BME280_humidity;BME280_pressure;Samples;Min_cycle;Max_cycle;Signal;HPM_P1;HPM_P2
2023/06/16 00:01:03;;;;;;;0.20;0.10;;;;;;;;;;5053638;28;20032;-79
2023/06/16 00:03:33;;;;;;;0.20;0.10;;;;;;;;;;5037919;28;20036;-79
2023/06/16 00:06:03;;;;;;;0.20;0.20;;;;;;;;;;5056281;28;20040;-79
2023/06/16 00:08:30;;;;;;;0.20;0.10;;;;;;;;;;5049571;28;20404;-79
2023/06/16 00:10:56;;;;;;;0.20;0.10;;;;;;;;;;5070195;28;20055;-79
2023/06/16 00:13:22;;;;;;;0.20;0.10;;;;;;;;;;5052259;28;20040;-79
2023/06/16 00:15:48;;;;;;;0.20;0.10;;;;;;;;;;5032573;28;20534;-79
2023/06/16 00:18:14;;;;;;;0.20;0.10;;;;;;;;;;5055815;28;20139;-79
2023/06/16 00:20:41;;;;;;;0.20;0.10;;;;;;;;;;5051210;28;20039;-79
2023/06/16 00:23:11;;;;;;;0.20;0.10;;;;;;;;;;5037387;28;20048;-79
2023/06/16 00:25:37;;;;;;;0.32;0.22;;;;;;;;;;5037741;28;20115;-79
2023/06/16 00:28:03;;;;;;;0.20;0.20;;;;;;;;;;5051606;28;20040;-79
2023/06/16 00:30:29;;;;;;;0.20;0.10;;;;;;;;;;5051277;28;20060;-79
2023/06/16 00:32:55;;;;;;;0.43;0.25;;;;;;;;;;5054370;28;20064;-79
2023/06/16 00:35:21;;;;;;;0.20;0.10;;;;;;;;;;5057859;28;20044;-79
2023/06/16 00:37:47;;;;;;;0.20;0.15;;;;;;;;;;5075974;22;20511;-82
2023/06/16 00:40:13;;;;;;;0.20;0.10;;;;;;;;;;4974034;28;20068;-82
2023/06/16 00:42:39;;;;;;;0.20;0.20;;;;;;;;;;4991366;28;20034;-83
2023/06/16 00:45:06;;;;;;;0.40;0.20;;;;;;;;;;4967530;28;20030;-84
2023/06/16 00:47:32;;;;;;;0.20;0.10;;;;;;;;;;4990666;28;20089;-82
2023/06/16 00:49:58;;;;;;;0.38;0.35;;;;;;;;;;4981880;28;20790;-83
2023/06/16 00:52:26;;;;;;;0.28;0.13;;;;;;;;;;4990514;28;20065;-82
2023/06/16 00:54:55;;;;;;;0.20;0.20;;;;;;;;;;4978123;28;20034;-82
2023/06/16 00:57:21;;;;;;;0.20;0.10;;;;;;;;;;4970647;28;20070;-82
2023/06/16 00:59:47;;;;;;;0.40;0.20;;;;;;;;;;4963277;28;20046;-82
2023/06/16 01:02:13;;;;;;;0.20;0.10;;;;;;;;;;4986039;28;20053;-83
2023/06/16 01:04:40;;;;;;;1.13;0.20;;;;;;;;;;4970728;28;20157;-82
2023/06/16 01:07:20;;;;;;;0.20;0.20;;;;;;;;;;4986404;28;20046;-82
2023/06/16 01:09:55;;;;;;;0.25;0.10;;;;;;;;;;4983144;28;20551;-82
2023/06/16 01:12:24;;;;;;;0.20;0.10;;;;;;;;;;4971143;28;20033;-82
2023/06/16 01:14:57;;;;;;;0.28;0.20;;;;;;;;;;4968673;28;20041;-81
2023/06/16 01:17:24;;;;;;;1.75;0.30;;;;;;;;;;4986541;28;20422;-81
2023/06/16 01:19:53;;;;;;;1.65;0.28;;;;;;;;;;4984319;28;21059;-81
2023/06/16 01:22:40;;;;;;;0.80;0.30;;;;;;;;;;4974307;28;20027;-82
2023/06/16 01:25:07;;;;;;;0.20;0.10;;;;;;;;;;4965873;28;20063;-82
2023/06/16 01:27:34;;;;;;;0.28;0.17;;;;;;;;;;4964296;28;20072;-82
2023/06/16 01:30:02;;;;;;;0.20;0.10;;;;;;;;;;4999448;28;20064;-82
2023/06/16 01:32:28;;;;;;;0.20;0.10;;;;;;;;;;4987223;28;20113;-82
2023/06/16 01:34:55;;;;;;;0.22;0.22;;;;;;;;;;4967021;28;20053;-82
2023/06/16 01:37:21;;;;;;;0.20;0.20;;;;;;;;;;4985885;28;20045;-82
2023/06/16 01:39:48;;;;;;;0.20;0.10;;;;;;;;;;4990647;28;20175;-81
2023/06/16 01:42:15;;;;;;;0.20;0.10;;;;;;;;;;4988389;28;20651;-82
2023/06/16 01:44:42;;;;;;;0.20;0.20;;;;;;;;;;4971377;28;20096;-82
2023/06/16 01:47:08;;;;;;;0.20;0.10;;;;;;;;;;4981813;28;20084;-81
2023/06/16 01:49:34;;;;;;;0.20;0.15;;;;;;;;;;5004103;28;20046;-82
2023/06/16 01:52:01;;;;;;;0.20;0.10;;;;;;;;;;4988401;28;20045;-82
2023/06/16 01:54:28;;;;;;;0.32;0.30;;;;;;;;;;4970237;28;20046;-82
2023/06/16 01:56:54;;;;;;;0.20;0.10;;;;;;;;;;4970317;28;20147;-82
2023/06/16 01:59:20;;;;;;;0.28;0.28;;;;;;;;;;4978463;28;20147;-83
2023/06/16 02:01:50;;;;;;;0.20;0.13;;;;;;;;;;4982840;28;20046;-82
2023/06/16 02:04:17;;;;;;;0.20;0.10;;;;;;;;;;4974146;28;20034;-83
2023/06/16 02:06:45;;;;;;;0.20;0.10;;;;;;;;;;4986914;28;20126;-82
2023/06/16 02:09:13;;;;;;;0.77;0.77;;;;;;;;;;4988826;28;20050;-82
2023/06/16 02:11:39;;;;;;;0.20;0.20;;;;;;;;;;4988219;28;20052;-82
2023/06/16 02:14:05;;;;;;;0.20;0.10;;;;;;;;;;4985682;28;20051;-84
2023/06/16 02:16:44;;;;;;;0.22;0.15;;;;;;;;;;4966674;28;20045;-83
2023/06/16 02:19:12;;;;;;;0.30;0.30;;;;;;;;;;4988933;28;20140;-82
2023/06/16 02:21:38;;;;;;;0.20;0.10;;;;;;;;;;4965920;28;20578;-82
2023/06/16 02:24:04;;;;;;;0.20;0.10;;;;;;;;;;4986504;28;20045;-82
2023/06/16 02:26:32;;;;;;;0.20;0.20;;;;;;;;;;4970214;28;20574;-82
2023/06/16 02:28:58;;;;;;;0.20;0.10;;;;;;;;;;4975493;28;20034;-81
2023/06/16 02:31:24;;;;;;;0.38;0.38;;;;;;;;;;4967326;28;20482;-81
2023/06/16 02:33:51;;;;;;;0.73;0.20;;;;;;;;;;4972381;28;20037;-81
2023/06/16 02:36:17;;;;;;;0.20;0.10;;;;;;;;;;4985305;28;20363;-82
2023/06/16 02:38:43;;;;;;;0.20;0.10;;;;;;;;;;4985894;28;20045;-82
2023/06/16 02:41:10;;;;;;;0.63;0.63;;;;;;;;;;4968318;28;20049;-82
2023/06/16 02:43:36;;;;;;;0.20;0.20;;;;;;;;;;4976200;28;20512;-82
2023/06/16 02:46:02;;;;;;;0.20;0.10;;;;;;;;;;4970256;28;20041;-82
2023/06/16 02:48:28;;;;;;;0.20;0.13;;;;;;;;;;4982179;28;20187;-82
2023/06/16 02:50:54;;;;;;;0.20;0.10;;;;;;;;;;4989486;28;20041;-83
2023/06/16 02:53:20;;;;;;;0.40;0.20;;;;;;;;;;4987797;28;20057;-83
2023/06/16 02:55:46;;;;;;;0.20;0.20;;;;;;;;;;4989321;28;20171;-82
2023/06/16 02:58:13;;;;;;;0.60;0.60;;;;;;;;;;4975732;28;20037;-82
2023/06/16 03:00:39;;;;;;;0.20;0.10;;;;;;;;;;4990637;28;20053;-82
2023/06/16 03:03:07;;;;;;;0.20;0.10;;;;;;;;;;4987044;28;20045;-82
2023/06/16 03:05:33;;;;;;;0.20;0.10;;;;;;;;;;4991966;28;20115;-81
2023/06/16 03:07:59;;;;;;;0.20;0.13;;;;;;;;;;4987872;28;20124;-81
2023/06/16 03:10:26;;;;;;;0.20;0.10;;;;;;;;;;4970053;28;20529;-82
2023/06/16 03:12:52;;;;;;;0.20;0.10;;;;;;;;;;4989358;28;20088;-81
2023/06/16 03:15:19;;;;;;;0.28;0.20;;;;;;;;;;4988992;28;20038;-81
2023/06/16 03:17:47;;;;;;;0.20;0.10;;;;;;;;;;4968089;28;20176;-81
2023/06/16 03:20:13;;;;;;;0.20;0.20;;;;;;;;;;4972108;28;20033;-81
2023/06/16 03:22:39;;;;;;;0.20;0.10;;;;;;;;;;4989435;28;20108;-81
2023/06/16 03:25:06;;;;;;;0.20;0.10;;;;;;;;;;4979356;28;20049;-81
2023/06/16 03:27:32;;;;;;;0.20;0.10;;;;;;;;;;4969466;28;20376;-82
2023/06/16 03:29:58;;;;;;;0.20;0.10;;;;;;;;;;4990856;28;20522;-82
2023/06/16 03:32:24;;;;;;;0.40;0.40;;;;;;;;;;4987321;28;20048;-81
2023/06/16 03:34:50;;;;;;;0.30;0.20;;;;;;;;;;4988498;28;20037;-82
2023/06/16 03:37:17;;;;;;;0.20;0.10;;;;;;;;;;4987488;28;20045;-81
2023/06/16 03:39:43;;;;;;;0.20;0.10;;;;;;;;;;4972398;28;20045;-82
2023/06/16 03:42:10;;;;;;;0.32;0.32;;;;;;;;;;4971953;28;20037;-81
2023/06/16 03:44:36;;;;;;;0.73;0.32;;;;;;;;;;4982567;28;20050;-82
2023/06/16 03:47:02;;;;;;;0.20;0.10;;;;;;;;;;4972459;28;20117;-82
2023/06/16 03:49:29;;;;;;;0.20;0.10;;;;;;;;;;4992125;28;20081;-82
2023/06/16 03:51:57;;;;;;;0.30;0.25;;;;;;;;;;4995347;28;20514;-81
2023/06/16 03:54:23;;;;;;;0.30;0.30;;;;;;;;;;4993383;28;20053;-81
2023/06/16 03:56:50;;;;;;;0.20;0.10;;;;;;;;;;4973437;28;20167;-81
2023/06/16 03:59:16;;;;;;;0.40;0.20;;;;;;;;;;4988782;28;20714;-81
2023/06/16 04:01:42;;;;;;;0.30;0.25;;;;;;;;;;4975385;28;20030;-81
2023/06/16 04:04:09;;;;;;;0.30;0.20;;;;;;;;;;4981713;28;20080;-81
2023/06/16 04:06:35;;;;;;;0.20;0.10;;;;;;;;;;4982283;28;20045;-81
2023/06/16 04:09:02;;;;;;;0.20;0.10;;;;;;;;;;4988156;28;20041;-81
2023/06/16 04:11:28;;;;;;;1.17;0.30;;;;;;;;;;4976008;28;20413;-81
2023/06/16 04:13:54;;;;;;;0.20;0.10;;;;;;;;;;4969266;28;20044;-81
2023/06/16 04:16:20;;;;;;;0.20;0.10;;;;;;;;;;4976629;28;20042;-81
2023/06/16 04:18:48;;;;;;;0.20;0.17;;;;;;;;;;4977471;28;20418;-81
2023/06/16 04:21:15;;;;;;;0.30;0.20;;;;;;;;;;4975832;28;20041;-81
2023/06/16 04:23:41;;;;;;;0.20;0.17;;;;;;;;;;4993752;28;20415;-80
2023/06/16 04:26:08;;;;;;;0.22;0.22;;;;;;;;;;4970572;28;20034;-81
2023/06/16 04:28:38;;;;;;;0.45;0.43;;;;;;;;;;4975899;28;20041;-81
2023/06/16 04:31:04;;;;;;;1.48;0.63;;;;;;;;;;4973799;28;20067;-81
2023/06/16 04:33:30;;;;;;;0.20;0.10;;;;;;;;;;4968834;28;20076;-82
2023/06/16 04:35:56;;;;;;;0.45;0.40;;;;;;;;;;4972323;28;20056;-81
2023/06/16 04:38:23;;;;;;;0.85;0.20;;;;;;;;;;4992073;28;20045;-82
2023/06/16 04:40:50;;;;;;;1.65;0.45;;;;;;;;;;4970279;28;21052;-81
2023/06/16 04:43:16;;;;;;;0.20;0.10;;;;;;;;;;4972059;28;20042;-80
2023/06/16 04:45:42;;;;;;;0.20;0.20;;;;;;;;;;4986841;28;20081;-82
2023/06/16 04:48:08;;;;;;;0.20;0.10;;;;;;;;;;4974746;28;20118;-81
2023/06/16 04:50:34;;;;;;;1.05;0.75;;;;;;;;;;4965962;28;20042;-82
2023/06/16 04:53:03;;;;;;;0.20;0.10;;;;;;;;;;4987902;28;20132;-82
2023/06/16 04:55:30;;;;;;;0.20;0.10;;;;;;;;;;4976647;28;20100;-81
2023/06/16 04:57:56;;;;;;;0.22;0.22;;;;;;;;;;4967435;28;20941;-81
2023/06/16 05:00:22;;;;;;;0.22;0.22;;;;;;;;;;4976770;28;20073;-82
2023/06/16 05:02:48;;;;;;;0.20;0.10;;;;;;;;;;4991472;28;20580;-81
2023/06/16 05:05:14;;;;;;;0.22;0.22;;;;;;;;;;4977458;28;20091;-83
2023/06/16 05:07:40;;;;;;;0.35;0.20;;;;;;;;;;4992486;28;20045;-82
2023/06/16 05:10:06;;;;;;;0.20;0.10;;;;;;;;;;4993565;28;22164;-81
2023/06/16 05:12:32;;;;;;;0.30;0.30;;;;;;;;;;4995439;28;20104;-81
2023/06/16 05:14:59;;;;;;;0.25;0.20;;;;;;;;;;4981631;28;20413;-81
2023/06/16 05:17:25;;;;;;;0.20;0.10;;;;;;;;;;4980848;28;20528;-81
2023/06/16 05:19:52;;;;;;;0.28;0.28;;;;;;;;;;4992451;28;20072;-80
2023/06/16 05:22:23;;;;;;;0.30;0.28;;;;;;;;;;4981093;28;20179;-80
2023/06/16 05:24:49;;;;;;;0.20;0.10;;;;;;;;;;4994440;28;20419;-82
2023/06/16 05:27:15;;;;;;;0.28;0.20;;;;;;;;;;5000917;28;20057;-82
2023/06/16 05:29:41;;;;;;;0.30;0.20;;;;;;;;;;4982220;28;20041;-81
2023/06/16 05:32:07;;;;;;;0.20;0.10;;;;;;;;;;4979432;28;20041;-82
2023/06/16 05:34:35;;;;;;;0.35;0.15;;;;;;;;;;4994376;28;20057;-80
2023/06/16 05:37:01;;;;;;;0.63;0.50;;;;;;;;;;4977628;28;20406;-79
2023/06/16 05:39:27;;;;;;;0.20;0.10;;;;;;;;;;4973233;28;20053;-82
2023/06/16 05:41:53;;;;;;;0.20;0.10;;;;;;;;;;5011406;28;20041;-82
2023/06/16 05:44:19;;;;;;;0.30;0.30;;;;;;;;;;4978661;28;20071;-82
2023/06/16 05:46:47;;;;;;;2.70;0.50;;;;;;;;;;5000689;28;20042;-81
2023/06/16 05:49:14;;;;;;;0.20;0.10;;;;;;;;;;4983340;28;20085;-80
2023/06/16 05:51:40;;;;;;;0.50;0.38;;;;;;;;;;4986900;28;20030;-82
2023/06/16 05:54:06;;;;;;;0.20;0.10;;;;;;;;;;4990974;28;20084;-81
2023/06/16 05:56:32;;;;;;;0.30;0.20;;;;;;;;;;4992104;28;20037;-81
2023/06/16 05:58:58;;;;;;;0.20;0.20;;;;;;;;;;4994537;28;20499;-81
2023/06/16 06:01:24;;;;;;;0.50;0.30;;;;;;;;;;4990371;28;20049;-82
2023/06/16 06:03:50;;;;;;;0.50;0.38;;;;;;;;;;4991004;28;20175;-83
2023/06/16 06:06:16;;;;;;;0.20;0.10;;;;;;;;;;4980872;28;20522;-82
2023/06/16 06:08:42;;;;;;;0.28;0.28;;;;;;;;;;4990677;28;20038;-81
2023/06/16 06:11:08;;;;;;;0.20;0.15;;;;;;;;;;4994031;28;20041;-81
2023/06/16 06:13:34;;;;;;;0.40;0.22;;;;;;;;;;4992112;28;20048;-79
2023/06/16 06:16:03;;;;;;;0.20;0.10;;;;;;;;;;4999268;28;20045;-81
2023/06/16 06:18:29;;;;;;;0.30;0.20;;;;;;;;;;4979563;28;20040;-82
2023/06/16 06:20:55;;;;;;;1.15;0.47;;;;;;;;;;5003007;28;20045;-81
2023/06/16 06:23:21;;;;;;;0.25;0.20;;;;;;;;;;5009346;28;20502;-80
2023/06/16 06:25:48;;;;;;;0.20;0.20;;;;;;;;;;4987397;28;21778;-79
2023/06/16 06:28:14;;;;;;;0.55;0.22;;;;;;;;;;4975691;28;20847;-78
2023/06/16 06:30:40;;;;;;;0.20;0.10;;;;;;;;;;4976355;28;20057;-80
2023/06/16 06:33:06;;;;;;;0.20;0.10;;;;;;;;;;4992707;28;20041;-81
2023/06/16 06:35:32;;;;;;;0.28;0.28;;;;;;;;;;5000884;28;20037;-83
2023/06/16 06:40:31;;;;;;;0.20;0.13;;;;;;;;;;5019267;28;19925;-79
2023/06/16 06:42:57;;;;;;;0.22;0.20;;;;;;;;;;5011555;28;20506;-77
2023/06/16 06:45:23;;;;;;;0.25;0.10;;;;;;;;;;5015976;28;20121;-79
2023/06/16 06:47:49;;;;;;;0.20;0.20;;;;;;;;;;5010624;28;21122;-79
2023/06/16 06:50:15;;;;;;;0.20;0.10;;;;;;;;;;5031706;28;20541;-79
2023/06/16 06:52:41;;;;;;;0.20;0.20;;;;;;;;;;5022923;28;20044;-80
2023/06/16 06:55:08;;;;;;;0.95;0.30;;;;;;;;;;5049517;28;20048;-79
2023/06/16 06:57:34;;;;;;;0.30;0.20;;;;;;;;;;5033033;28;20500;-79
2023/06/16 07:00:00;;;;;;;0.20;0.10;;;;;;;;;;5032200;28;20071;-79
2023/06/16 07:02:26;;;;;;;0.20;0.10;;;;;;;;;;5048457;28;20061;-79
2023/06/16 07:04:52;;;;;;;0.35;0.30;;;;;;;;;;5047392;28;20481;-78
2023/06/16 07:07:18;;;;;;;1.20;0.73;;;;;;;;;;5047541;28;20335;-80
2023/06/16 07:09:44;;;;;;;0.20;0.10;;;;;;;;;;5062614;28;20049;-79
2023/06/16 07:12:10;;;;;;;0.20;0.10;;;;;;;;;;5027949;28;20120;-79
2023/06/16 07:14:37;;;;;;;0.20;0.10;;;;;;;;;;5028503;28;20639;-79
2023/06/16 07:17:03;;;;;;;0.20;0.20;;;;;;;;;;5037527;28;20067;-79
2023/06/16 07:19:29;;;;;;;0.30;0.20;;;;;;;;;;5025887;28;20409;-80
2023/06/16 07:21:57;;;;;;;0.40;0.40;;;;;;;;;;5026464;28;20572;-80
2023/06/16 07:24:23;;;;;;;0.35;0.30;;;;;;;;;;5029682;28;20079;-79
2023/06/16 07:26:49;;;;;;;0.30;0.10;;;;;;;;;;5029667;28;20067;-79
2023/06/16 07:29:15;;;;;;;0.20;0.10;;;;;;;;;;5048482;28;20792;-80
2023/06/16 07:31:41;;;;;;;0.45;0.38;;;;;;;;;;5024404;28;20037;-80
2023/06/16 07:34:07;;;;;;;0.20;0.10;;;;;;;;;;5044530;28;20036;-79
2023/06/16 07:36:34;;;;;;;0.20;0.10;;;;;;;;;;5039216;28;20065;-79
2023/06/16 07:39:01;;;;;;;1.00;0.52;;;;;;;;;;5040581;28;20041;-80
2023/06/16 07:41:27;;;;;;;0.20;0.10;;;;;;;;;;5021770;28;20077;-80
2023/06/16 07:43:53;;;;;;;0.30;0.20;;;;;;;;;;5035553;28;20045;-80
2023/06/16 07:46:19;;;;;;;0.20;0.13;;;;;;;;;;5023137;28;20087;-79
2023/06/16 07:48:46;;;;;;;0.20;0.10;;;;;;;;;;5026301;28;20162;-79
2023/06/16 07:51:12;;;;;;;0.40;0.40;;;;;;;;;;5018439;28;20037;-79
2023/06/16 07:53:40;;;;;;;0.60;0.40;;;;;;;;;;5032994;28;20502;-79
2023/06/16 07:56:12;;;;;;;0.32;0.30;;;;;;;;;;5036280;28;20496;-83
2023/06/16 07:58:38;;;;;;;;;;;;;;;;;;5034798;28;20120;-78
2023/06/16 08:01:04;;;;;;;0.50;0.50;;;;;;;;;;5037822;28;19943;-80
2023/06/16 08:03:31;;;;;;;0.20;0.20;;;;;;;;;;5026007;28;20041;-81
2023/06/16 08:05:57;;;;;;;0.20;0.13;;;;;;;;;;5059028;28;20029;-80
2023/06/16 08:08:27;;;;;;;0.30;0.30;;;;;;;;;;5037672;28;20059;-80
2023/06/16 08:10:54;;;;;;;0.35;0.25;;;;;;;;;;5021867;28;20076;-79
2023/06/16 08:13:20;;;;;;;0.20;0.20;;;;;;;;;;5040094;28;20037;-82
2023/06/16 08:15:46;;;;;;;0.43;0.40;;;;;;;;;;5019018;28;20463;-80
2023/06/16 08:18:12;;;;;;;0.20;0.10;;;;;;;;;;5021359;28;20037;-81
2023/06/16 08:20:37;;;;;;;0.20;0.20;;;;;;;;;;5016303;28;20098;-81
2023/06/16 08:23:04;;;;;;;0.20;0.10;;;;;;;;;;5035762;28;20048;-80
2023/06/16 08:25:30;;;;;;;0.20;0.20;;;;;;;;;;5054804;28;20040;-81
2023/06/16 08:27:56;;;;;;;0.20;0.10;;;;;;;;;;5020056;28;20041;-77
2023/06/16 08:30:22;;;;;;;0.20;0.13;;;;;;;;;;5037933;28;20047;-81
2023/06/16 08:32:48;;;;;;;0.45;0.20;;;;;;;;;;5039809;28;20544;-81
2023/06/16 08:35:14;;;;;;;0.30;0.30;;;;;;;;;;5014188;28;20041;-80
2023/06/16 08:37:40;;;;;;;0.20;0.15;;;;;;;;;;5017608;28;20443;-82
2023/06/16 08:40:10;;;;;;;0.25;0.25;;;;;;;;;;5035997;28;20071;-84
2023/06/16 08:42:37;;;;;;;0.35;0.13;;;;;;;;;;5035986;28;20104;-79
2023/06/16 08:45:04;;;;;;;0.43;0.20;;;;;;;;;;5035745;28;20049;-81
2023/06/16 08:47:30;;;;;;;0.20;0.15;;;;;;;;;;5015089;28;20528;-79
2023/06/16 08:49:56;;;;;;;0.20;0.20;;;;;;;;;;5030573;28;20558;-81
2023/06/16 08:52:26;;;;;;;0.20;0.10;;;;;;;;;;5031048;28;20518;-81
2023/06/16 08:54:57;;;;;;;0.30;0.20;;;;;;;;;;5036858;28;20055;-80
2023/06/16 08:57:24;;;;;;;0.20;0.10;;;;;;;;;;5018504;28;20048;-81
2023/06/16 08:59:54;;;;;;;0.20;0.10;;;;;;;;;;5034211;28;20413;-81
2023/06/16 09:02:21;;;;;;;0.20;0.20;;;;;;;;;;5031331;28;20051;-80
2023/06/16 09:04:47;;;;;;;0.20;0.10;;;;;;;;;;5033919;28;20040;-79
2023/06/16 09:07:19;;;;;;;0.30;0.20;;;;;;;;;;5021974;28;20049;-80
2023/06/16 09:09:45;;;;;;;0.38;0.38;;;;;;;;;;5036913;28;20456;-80
2023/06/16 09:12:12;;;;;;;0.30;0.30;;;;;;;;;;5017405;28;20040;-80
2023/06/16 09:14:39;;;;;;;0.28;0.25;;;;;;;;;;5018919;28;20040;-82
2023/06/16 09:17:06;;;;;;;0.30;0.20;;;;;;;;;;5037878;28;20044;-80
2023/06/16 09:19:36;;;;;;;0.20;0.10;;;;;;;;;;5033962;28;21257;-79
2023/06/16 09:22:03;;;;;;;0.47;0.30;;;;;;;;;;5014646;28;20521;-80
2023/06/16 09:24:29;;;;;;;0.20;0.10;;;;;;;;;;5009284;28;20036;-80
2023/06/16 09:26:59;;;;;;;0.20;0.15;;;;;;;;;;5016881;28;20056;-80
2023/06/16 09:29:26;;;;;;;0.40;0.40;;;;;;;;;;5030827;28;20041;-80
2023/06/16 09:31:52;;;;;;;0.50;0.20;;;;;;;;;;5020149;28;20148;-80
2023/06/16 09:34:19;;;;;;;0.30;0.30;;;;;;;;;;5011466;28;20524;-81
2023/06/16 09:36:45;;;;;;;0.20;0.10;;;;;;;;;;5012518;28;20036;-82
2023/06/16 09:39:22;;;;;;;0.20;0.20;;;;;;;;;;5028064;28;20044;-79
2023/06/16 09:41:49;;;;;;;0.30;0.20;;;;;;;;;;5022414;28;20418;-83
2023/06/16 09:44:15;;;;;;;0.22;0.22;;;;;;;;;;5020758;28;20128;-83
2023/06/16 09:46:42;;;;;;;0.20;0.10;;;;;;;;;;5019393;28;20034;-81
2023/06/16 09:49:18;;;;;;;0.20;0.20;;;;;;;;;;5039286;28;20040;-81
2023/06/16 09:51:49;;;;;;;0.60;0.40;;;;;;;;;;5034670;28;20036;-78
2023/06/16 09:54:16;;;;;;;0.20;0.10;;;;;;;;;;5038071;28;20041;-82
2023/06/16 09:56:43;;;;;;;0.20;0.10;;;;;;;;;;5035418;28;20242;-80
2023/06/16 09:59:10;;;;;;;0.85;0.20;;;;;;;;;;5013455;28;20489;-81
2023/06/16 10:01:37;;;;;;;0.20;0.13;;;;;;;;;;5034474;28;20068;-79
2023/06/16 10:04:03;;;;;;;0.35;0.30;;;;;;;;;;5038129;28;20041;-80
2023/06/16 10:06:30;;;;;;;0.20;0.10;;;;;;;;;;5017892;28;20033;-82
2023/06/16 10:08:56;;;;;;;0.25;0.20;;;;;;;;;;5025611;28;20112;-79
2023/06/16 10:11:22;;;;;;;0.20;0.10;;;;;;;;;;5033080;28;20128;-82
2023/06/16 10:13:52;;;;;;;0.20;0.15;;;;;;;;;;5040532;28;20090;-79
2023/06/16 10:16:21;;;;;;;0.20;0.10;;;;;;;;;;5041079;28;20473;-79
2023/06/16 10:18:48;;;;;;;0.20;0.10;;;;;;;;;;5019981;28;20064;-80
2023/06/16 10:21:14;;;;;;;0.20;0.10;;;;;;;;;;5019110;28;20041;-81
2023/06/16 10:23:40;;;;;;;0.43;0.17;;;;;;;;;;5036758;28;20083;-80
2023/06/16 10:26:07;;;;;;;0.20;0.10;;;;;;;;;;5034484;28;20083;-79
2023/06/16 10:28:37;;;;;;;0.20;0.10;;;;;;;;;;5039956;28;20072;-79
2023/06/16 10:31:04;;;;;;;0.57;0.40;;;;;;;;;;5039682;28;20060;-79
2023/06/16 10:33:50;;;;;;;0.20;0.10;;;;;;;;;;5038164;28;20729;-80
2023/06/16 10:36:19;;;;;;;0.35;0.30;;;;;;;;;;5035011;28;20049;-80
2023/06/16 10:38:55;;;;;;;0.75;0.20;;;;;;;;;;5024108;28;20057;-79
2023/06/16 10:41:21;;;;;;;0.22;0.13;;;;;;;;;;4994587;28;20041;-80
2023/06/16 10:43:47;;;;;;;0.20;0.10;;;;;;;;;;4996181;28;20052;-81
2023/06/16 10:46:17;;;;;;;0.20;0.10;;;;;;;;;;5012388;28;20041;-80
2023/06/16 10:48:56;;;;;;;0.20;0.10;;;;;;;;;;5013832;28;20092;-80
2023/06/16 10:51:41;;;;;;;0.20;0.10;;;;;;;;;;5012453;28;20518;-83
2023/06/16 10:54:08;;;;;;;0.20;0.10;;;;;;;;;;5005805;28;20037;-82
2023/06/16 10:57:04;;;;;;;0.25;0.15;;;;;;;;;;4998018;28;20041;-82
2023/06/16 10:59:30;;;;;;;0.20;0.10;;;;;;;;;;4981037;28;20147;-80
2023/06/16 11:01:57;;;;;;;0.40;0.30;;;;;;;;;;4995395;28;20042;-80
2023/06/16 11:04:24;;;;;;;0.50;0.30;;;;;;;;;;4992874;28;20717;-79
2023/06/16 11:07:09;;;;;;;0.20;0.20;;;;;;;;;;5000204;28;20038;-82
2023/06/16 11:09:36;;;;;;;0.20;0.20;;;;;;;;;;5011253;28;20068;-80
2023/06/16 11:12:02;;;;;;;0.20;0.20;;;;;;;;;;5010289;28;20045;-80
2023/06/16 11:14:28;;;;;;;0.20;0.10;;;;;;;;;;5011249;28;20168;-82
2023/06/16 11:16:55;;;;;;;0.20;0.20;;;;;;;;;;5021595;28;20048;-81
2023/06/16 11:19:21;;;;;;;0.20;0.10;;;;;;;;;;5016686;28;20266;-79
2023/06/16 11:21:47;;;;;;;0.20;0.10;;;;;;;;;;5013972;28;20275;-80
2023/06/16 11:24:14;;;;;;;0.20;0.10;;;;;;;;;;5012741;28;20053;-79
2023/06/16 11:26:41;;;;;;;0.30;0.20;;;;;;;;;;5022983;28;20037;-79
2023/06/16 11:29:07;;;;;;;0.20;0.10;;;;;;;;;;5021584;28;20041;-82
2023/06/16 11:31:38;;;;;;;0.30;0.10;;;;;;;;;;5016078;28;20106;-78
2023/06/16 11:34:04;;;;;;;0.95;0.50;;;;;;;;;;5015233;28;20374;-81
2023/06/16 11:36:34;;;;;;;0.20;0.10;;;;;;;;;;5012536;28;20054;-86
2023/06/16 11:39:04;;;;;;;0.20;0.10;;;;;;;;;;5026278;28;20096;-80
2023/06/16 11:41:31;;;;;;;0.52;0.28;;;;;;;;;;5012930;28;20100;-81
2023/06/16 11:43:57;;;;;;;0.20;0.20;;;;;;;;;;5013875;28;20061;-79
2023/06/16 11:46:25;;;;;;;0.20;0.20;;;;;;;;;;5033558;28;20256;-81
2023/06/16 11:48:52;;;;;;;0.43;0.10;;;;;;;;;;5039759;28;20036;-81
2023/06/16 11:51:18;;;;;;;0.20;0.10;;;;;;;;;;5037998;28;20722;-80
2023/06/16 11:53:45;;;;;;;0.25;0.20;;;;;;;;;;5037034;28;20527;-83
2023/06/16 11:56:15;;;;;;;0.45;0.25;;;;;;;;;;5031879;28;20094;-80
2023/06/16 11:58:48;;;;;;;0.20;0.10;;;;;;;;;;5020079;28;20455;-82
2023/06/16 12:01:15;;;;;;;0.40;0.30;;;;;;;;;;5020584;28;20444;-81
2023/06/16 12:03:41;;;;;;;0.20;0.20;;;;;;;;;;5020888;28;20718;-80
2023/06/16 12:06:08;;;;;;;0.20;0.20;;;;;;;;;;5016969;28;21032;-80
2023/06/16 12:08:36;;;;;;;0.20;0.17;;;;;;;;;;5030864;28;20060;-78
2023/06/16 12:11:02;;;;;;;0.22;0.22;;;;;;;;;;5053827;28;20135;-84
2023/06/16 12:13:29;;;;;;;0.25;0.22;;;;;;;;;;5021650;28;20041;-80
2023/06/16 12:15:55;;;;;;;0.20;0.15;;;;;;;;;;5036886;28;20040;-78
2023/06/16 12:18:21;;;;;;;0.28;0.20;;;;;;;;;;5010767;28;20052;-86
2023/06/16 12:20:47;;;;;;;0.20;0.10;;;;;;;;;;5020121;28;20116;-81
2023/06/16 12:23:13;;;;;;;0.20;0.10;;;;;;;;;;5011303;28;20258;-78
2023/06/16 12:25:40;;;;;;;0.20;0.10;;;;;;;;;;5030838;28;20498;-81
2023/06/16 12:28:06;;;;;;;0.20;0.20;;;;;;;;;;5021153;28;20056;-80
2023/06/16 12:30:33;;;;;;;0.20;0.10;;;;;;;;;;5021072;28;20037;-83
2023/06/16 12:33:08;;;;;;;0.20;0.10;;;;;;;;;;5023167;28;20475;-78
2023/06/16 12:35:34;;;;;;;0.43;0.25;;;;;;;;;;5011984;28;20041;-79
2023/06/16 12:38:00;;;;;;;0.20;0.20;;;;;;;;;;5032782;28;20041;-83
2023/06/16 12:40:31;;;;;;;0.20;0.10;;;;;;;;;;5024458;23;20056;-81
2023/06/16 12:42:57;;;;;;;0.20;0.20;;;;;;;;;;4999131;28;20041;-82
2023/06/16 12:45:23;;;;;;;0.20;0.10;;;;;;;;;;5024831;28;20048;-78
2023/06/16 12:47:49;;;;;;;0.20;0.17;;;;;;;;;;5018950;28;20032;-82
2023/06/16 12:50:15;;;;;;;0.20;0.20;;;;;;;;;;5011851;28;20061;-82
2023/06/16 12:52:41;;;;;;;2.60;0.30;;;;;;;;;;4999688;28;20131;-81
2023/06/16 12:55:07;;;;;;;0.20;0.20;;;;;;;;;;4987680;28;20048;-86
2023/06/16 12:57:34;;;;;;;0.20;0.10;;;;;;;;;;4983467;28;20049;-80
2023/06/16 13:00:00;;;;;;;0.20;0.15;;;;;;;;;;4985791;28;20552;-81
2023/06/16 13:02:26;;;;;;;0.28;0.13;;;;;;;;;;5000876;28;20041;-86
2023/06/16 13:04:52;;;;;;;0.20;0.10;;;;;;;;;;4986487;28;20045;-83
2023/06/16 13:07:18;;;;;;;0.20;0.20;;;;;;;;;;4999852;28;20045;-81
2023/06/16 13:09:44;;;;;;;0.30;0.10;;;;;;;;;;5000531;28;20045;-82
2023/06/16 13:12:11;;;;;;;0.20;0.10;;;;;;;;;;4999865;28;21490;-83
2023/06/16 13:14:37;;;;;;;0.30;0.28;;;;;;;;;;5002833;28;20037;-83
2023/06/16 13:17:04;;;;;;;0.20;0.20;;;;;;;;;;4985586;28;20069;-83
2023/06/16 13:19:30;;;;;;;0.20;0.10;;;;;;;;;;4994175;28;20042;-83
2023/06/16 13:21:57;;;;;;;1.50;0.30;;;;;;;;;;4985405;28;20306;-83
2023/06/16 13:24:23;;;;;;;0.20;0.10;;;;;;;;;;4994585;28;20103;-81
2023/06/16 13:26:50;;;;;;;0.20;0.10;;;;;;;;;;5003082;28;20041;-82
2023/06/16 13:29:16;;;;;;;0.20;0.15;;;;;;;;;;5007043;28;20509;-81
2023/06/16 13:31:42;;;;;;;0.20;0.10;;;;;;;;;;4986764;28;20030;-82
2023/06/16 13:34:08;;;;;;;0.20;0.20;;;;;;;;;;4977202;28;20034;-79
2023/06/16 13:36:34;;;;;;;0.30;0.20;;;;;;;;;;4999931;28;20038;-82
2023/06/16 13:39:03;;;;;;;0.22;0.20;;;;;;;;;;4983892;28;20037;-80
2023/06/16 13:41:29;;;;;;;0.20;0.10;;;;;;;;;;4979080;28;20044;-81
2023/06/16 13:43:55;;;;;;;0.38;0.25;;;;;;;;;;4998315;28;20636;-81
2023/06/16 13:46:21;;;;;;;0.32;0.32;;;;;;;;;;4984164;28;20612;-80
2023/06/16 13:48:47;;;;;;;0.20;0.15;;;;;;;;;;4997927;28;20046;-80
2023/06/16 13:51:14;;;;;;;0.20;0.10;;;;;;;;;;5000243;28;20072;-83
2023/06/16 13:53:40;;;;;;;0.20;0.10;;;;;;;;;;5002636;28;20048;-79
2023/06/16 13:56:07;;;;;;;0.20;0.10;;;;;;;;;;4987761;28;20041;-81
2023/06/16 13:58:33;;;;;;;0.20;0.10;;;;;;;;;;4985918;28;20111;-82
2023/06/16 14:00:59;;;;;;;0.20;0.10;;;;;;;;;;5006653;28;20036;-83
2023/06/16 14:03:25;;;;;;;0.20;0.10;;;;;;;;;;4981701;28;20116;-83
2023/06/16 14:05:52;;;;;;;0.20;0.20;;;;;;;;;;5003075;28;20155;-81
2023/06/16 14:08:18;;;;;;;0.20;0.20;;;;;;;;;;4999312;28;20056;-82
2023/06/16 14:10:45;;;;;;;0.30;0.20;;;;;;;;;;4982381;28;20228;-83
2023/06/16 14:13:12;;;;;;;0.20;0.10;;;;;;;;;;5000857;28;20063;-79
2023/06/16 14:15:38;;;;;;;0.30;0.10;;;;;;;;;;5015213;28;20045;-86
2023/06/16 14:18:04;;;;;;;0.45;0.30;;;;;;;;;;5002703;28;20072;-83
2023/06/16 14:20:30;;;;;;;0.90;0.52;;;;;;;;;;5003826;28;20103;-85
2023/06/16 14:22:56;;;;;;;0.30;0.30;;;;;;;;;;4980289;28;20539;-80
2023/06/16 14:25:23;;;;;;;0.20;0.20;;;;;;;;;;4997934;28;20045;-80
2023/06/16 14:27:49;;;;;;;0.20;0.20;;;;;;;;;;5000109;28;20037;-79
2023/06/16 14:30:15;;;;;;;0.25;0.25;;;;;;;;;;5000867;28;20049;-80
2023/06/16 14:32:41;;;;;;;0.40;0.40;;;;;;;;;;4987994;28;20045;-82
2023/06/16 14:35:08;;;;;;;0.22;0.13;;;;;;;;;;4978255;28;20046;-81
2023/06/16 14:37:34;;;;;;;0.20;0.20;;;;;;;;;;4997141;28;20469;-81
2023/06/16 14:40:00;;;;;;;0.20;0.10;;;;;;;;;;4999753;28;20076;-78
2023/06/16 14:42:27;;;;;;;0.30;0.20;;;;;;;;;;5004949;28;20455;-80
2023/06/16 14:44:53;;;;;;;0.20;0.20;;;;;;;;;;4998967;28;20056;-83